createdAt,value
2023-04-15T00:01:12.141Z,99861.97
2023-04-15T00:03:41.424Z,99860.02
2023-04-15T00:06:10.438Z,99862.46
2023-04-15T00:08:39.761Z,99861.55
2023-04-15T00:11:08.487Z,99862.76
2023-04-15T00:13:37.794Z,99862.55
2023-04-15T00:16:08.552Z,99866.33
2023-04-15T00:18:38.221Z,99864.83
2023-04-15T00:21:06.970Z,99863.46
2023-04-15T00:23:36.849Z,99861.14
2023-04-15T00:26:05.563Z,99864.08
2023-04-15T00:28:34.315Z,99860.71
2023-04-15T00:31:03.081Z,99859.75
2023-04-15T00:33:31.900Z,99859.63
2023-04-15T00:36:00.551Z,99857.65
2023-04-15T00:38:29.766Z,99853.05
2023-04-15T00:40:58.503Z,99851.59
2023-04-15T00:43:27.753Z,99849.17
2023-04-15T00:45:58.886Z,99850.20
2023-04-15T00:48:28.270Z,99847.48
2023-04-15T00:50:57.087Z,99847.74
2023-04-15T00:53:25.833Z,99849.15
2023-04-15T00:55:54.858Z,99847.69
2023-04-15T00:58:24.126Z,99846.18
2023-04-15T01:00:54.568Z,99850.31
2023-04-15T01:03:23.769Z,99847.20
2023-04-15T01:05:58.321Z,99846.89
2023-04-15T01:08:31.822Z,99848.48
2023-04-15T01:11:03.657Z,99851.16
2023-04-15T01:13:34.491Z,99851.00
2023-04-15T01:16:03.302Z,99852.98
2023-04-15T01:18:32.854Z,99855.28
2023-04-15T01:21:04.882Z,99861.20
2023-04-15T01:23:39.203Z,99860.98
2023-04-15T01:26:11.401Z,99862.58
2023-04-15T01:28:40.150Z,99857.77
2023-04-15T01:31:13.677Z,99863.09
2023-04-15T01:33:43.237Z,99862.64
2023-04-15T01:36:11.972Z,99862.96
2023-04-15T01:38:41.078Z,99864.52
2023-04-15T01:41:09.807Z,99865.66
2023-04-15T01:43:38.489Z,99862.64
2023-04-15T01:46:07.260Z,99863.55
2023-04-15T01:48:36.014Z,99859.85
2023-04-15T01:51:04.763Z,99862.23
2023-04-15T01:53:34.359Z,99866.52
2023-04-15T01:56:03.277Z,99863.96
2023-04-15T01:58:32.028Z,99867.48
2023-04-15T02:01:01.858Z,99865.85
2023-04-15T02:03:30.757Z,99861.58
2023-04-15T02:05:59.564Z,99864.60
2023-04-15T02:08:28.717Z,99866.00
2023-04-15T02:10:57.522Z,99866.02
2023-04-15T02:13:26.218Z,99865.83
2023-04-15T02:15:55.708Z,99868.73
2023-04-15T02:18:24.378Z,99866.95
2023-04-15T02:20:53.124Z,99866.59
2023-04-15T02:23:21.746Z,99862.67
2023-04-15T02:25:53.764Z,99865.36
2023-04-15T02:28:22.956Z,99864.59
2023-04-15T02:30:53.455Z,99862.67
2023-04-15T02:33:22.532Z,99864.56
2023-04-15T02:35:51.581Z,99866.63
2023-04-15T02:38:20.392Z,99865.61
2023-04-15T02:40:50.445Z,99864.49
2023-04-15T02:43:19.153Z,99864.57
2023-04-15T02:45:47.894Z,99860.23
2023-04-15T02:48:19.050Z,99860.40
2023-04-15T02:50:48.163Z,99861.91
2023-04-15T02:53:17.583Z,99865.25
2023-04-15T02:55:46.425Z,99863.59
2023-04-15T02:58:15.190Z,99862.55
2023-04-15T03:00:43.882Z,99861.52
2023-04-15T03:03:15.279Z,99858.46
2023-04-15T03:05:44.504Z,99859.42
2023-04-15T03:08:14.821Z,99857.77
2023-04-15T03:10:43.453Z,99857.20
2023-04-15T03:13:12.174Z,99858.58
2023-04-15T03:15:40.995Z,99856.83
2023-04-15T03:18:09.692Z,99860.35
2023-04-15T03:20:38.545Z,99859.36
2023-04-15T03:23:07.402Z,99863.63
2023-04-15T03:25:37.484Z,99864.88
2023-04-15T03:28:06.312Z,99869.49
2023-04-15T03:30:35.002Z,99871.69
2023-04-15T03:33:03.812Z,99870.71
2023-04-15T03:35:32.517Z,99874.97
2023-04-15T03:38:01.466Z,99874.04
2023-04-15T03:40:30.545Z,99877.36
2023-04-15T03:42:59.221Z,99879.61
2023-04-15T03:45:28.128Z,99875.45
2023-04-15T03:48:00.612Z,99876.75
2023-04-15T03:50:40.103Z,99882.34
2023-04-15T03:53:08.776Z,99880.96
2023-04-15T03:55:37.946Z,99879.70
2023-04-15T03:58:06.646Z,99878.93
2023-04-15T04:00:35.459Z,99883.80
2023-04-15T04:03:04.334Z,99882.38
2023-04-15T04:05:33.210Z,99880.58
2023-04-15T04:08:01.853Z,99885.24
2023-04-15T04:10:30.584Z,99886.11
2023-04-15T04:12:59.282Z,99889.32
2023-04-15T04:15:28.012Z,99887.36
2023-04-15T04:17:57.121Z,99885.09
2023-04-15T04:20:25.806Z,99892.02
2023-04-15T04:22:54.490Z,99892.34
2023-04-15T04:25:23.210Z,99890.81
2023-04-15T04:27:51.876Z,99890.94
2023-04-15T04:30:20.555Z,99892.59
2023-04-15T04:32:50.998Z,99894.29
2023-04-15T04:35:19.796Z,99893.13
2023-04-15T04:37:48.518Z,99896.51
2023-04-15T04:40:17.308Z,99893.55
2023-04-15T04:42:46.030Z,99896.98
2023-04-15T04:45:15.218Z,99901.40
2023-04-15T04:47:43.992Z,99899.66
2023-04-15T04:50:12.691Z,99899.17
2023-04-15T04:52:43.418Z,99901.26
2023-04-15T04:55:12.558Z,99904.04
2023-04-15T04:57:41.507Z,99902.88
2023-04-15T05:00:10.821Z,99904.44
2023-04-15T05:02:39.677Z,99904.04
2023-04-15T05:05:09.068Z,99907.09
2023-04-15T05:07:39.568Z,99906.29
2023-04-15T05:10:08.815Z,99912.27
2023-04-15T05:12:38.617Z,99908.88
2023-04-15T05:15:08.261Z,99906.14
2023-04-15T05:17:37.025Z,99903.38
2023-04-15T05:20:06.602Z,99907.44
2023-04-15T05:22:35.376Z,99908.04
2023-04-15T05:25:04.384Z,99903.77
2023-04-15T05:27:33.158Z,99909.70
2023-04-15T05:30:01.913Z,99915.52
2023-04-15T05:32:31.255Z,99914.02
2023-04-15T05:35:00.175Z,99916.20
2023-04-15T05:37:28.869Z,99915.48
2023-04-15T05:39:57.866Z,99913.61
2023-04-15T05:42:26.529Z,99914.17
2023-04-15T05:44:55.196Z,99913.31
2023-04-15T05:47:24.057Z,99917.59
2023-04-15T05:49:52.994Z,99912.55
2023-04-15T05:52:22.044Z,99920.79
2023-04-15T05:54:50.753Z,99925.26
2023-04-15T05:57:19.472Z,99928.45
2023-04-15T05:59:48.179Z,99927.96
2023-04-15T06:02:17.688Z,99934.17
2023-04-15T06:04:46.620Z,99932.92
2023-04-15T06:07:15.603Z,99932.99
2023-04-15T06:09:44.887Z,99934.13
2023-04-15T06:12:13.902Z,99932.64
2023-04-15T06:14:42.593Z,99937.20
2023-04-15T06:17:11.463Z,99939.46
2023-04-15T06:19:40.161Z,99944.94
2023-04-15T06:22:10.048Z,99940.89
2023-04-15T06:24:38.763Z,99945.35
2023-04-15T06:27:07.514Z,99943.51
2023-04-15T06:29:36.465Z,99951.60
2023-04-15T06:32:05.368Z,99948.98
2023-04-15T06:34:34.375Z,99949.90
2023-04-15T06:37:04.465Z,99955.27
2023-04-15T06:39:34.887Z,99956.81
2023-04-15T06:42:03.719Z,99955.77
2023-04-15T06:44:33.866Z,99955.77
2023-04-15T06:47:03.486Z,99956.64
2023-04-15T06:49:32.155Z,99961.95
2023-04-15T06:52:01.645Z,99962.38
2023-04-15T06:54:30.343Z,99965.58
2023-04-15T06:56:59.032Z,99969.94
2023-04-15T06:59:27.671Z,99968.14
2023-04-15T07:01:56.741Z,99973.19
2023-04-15T07:04:25.757Z,99977.72
2023-04-15T07:06:55.637Z,99974.52
2023-04-15T07:09:24.807Z,99980.94
2023-04-15T07:11:53.506Z,99979.05
2023-04-15T07:14:22.153Z,99977.95
2023-04-15T07:16:50.983Z,99977.29
2023-04-15T07:19:19.676Z,99984.08
2023-04-15T07:21:48.358Z,99989.16
2023-04-15T07:24:19.013Z,99994.23
2023-04-15T07:26:47.699Z,99996.22
2023-04-15T07:29:16.490Z,99999.78
2023-04-15T07:31:45.183Z,99997.21
2023-04-15T07:34:13.839Z,99999.27
2023-04-15T07:36:43.173Z,100002.59
2023-04-15T07:39:11.991Z,99999.98
2023-04-15T07:41:40.802Z,100001.90
2023-04-15T07:44:09.477Z,100003.84
2023-04-15T07:46:38.779Z,100004.05
2023-04-15T07:49:07.772Z,100003.79
2023-04-15T07:51:37.386Z,100007.80
2023-04-15T07:54:06.074Z,100005.15
2023-04-15T07:56:34.704Z,100008.73
2023-04-15T07:59:04.792Z,100009.73
2023-04-15T08:01:33.651Z,100015.63
2023-04-15T08:04:02.604Z,100015.83
2023-04-15T08:06:31.544Z,100014.90
2023-04-15T08:09:01.022Z,100017.41
2023-04-15T08:11:29.920Z,100018.45
2023-04-15T08:13:58.745Z,100021.84
2023-04-15T08:16:30.116Z,100026.23
2023-04-15T08:18:59.015Z,100026.36
2023-04-15T08:21:30.807Z,100027.50
2023-04-15T08:24:00.287Z,100026.30
2023-04-15T08:26:29.001Z,100028.34
2023-04-15T08:28:57.928Z,100029.06
2023-04-15T08:31:29.890Z,100030.63
2023-04-15T08:33:59.454Z,100031.06
2023-04-15T08:36:28.528Z,100031.88
2023-04-15T08:38:57.183Z,100031.72
2023-04-15T08:41:27.442Z,100034.86
2023-04-15T08:44:04.158Z,100041.51
2023-04-15T08:46:34.977Z,100048.50
2023-04-15T08:49:05.295Z,100051.76
2023-04-15T08:51:34.466Z,100056.58
2023-04-15T08:54:04.163Z,100058.50
2023-04-15T08:56:33.310Z,100057.40
2023-04-15T08:59:02.680Z,100063.58
2023-04-15T09:01:32.646Z,100065.73
2023-04-15T09:04:03.305Z,100066.80
2023-04-15T09:06:31.994Z,100070.30
2023-04-15T09:09:01.239Z,100070.50
2023-04-15T09:11:31.515Z,100071.98
2023-04-15T09:14:00.345Z,100076.63
2023-04-15T09:16:29.105Z,100079.31
2023-04-15T09:18:57.807Z,100083.61
2023-04-15T09:21:26.572Z,100082.72
2023-04-15T09:24:01.985Z,100090.21
2023-04-15T09:26:33.482Z,100089.49
2023-04-15T09:29:07.631Z,100091.90
2023-04-15T09:31:37.690Z,100091.94
2023-04-15T09:34:07.258Z,100092.30
2023-04-15T09:36:54.420Z,100088.85
2023-04-15T09:39:23.460Z,100088.55
2023-04-15T09:42:05.904Z,100087.29
2023-04-15T09:44:34.597Z,100090.53
2023-04-15T09:47:03.299Z,100096.45
2023-04-15T09:49:32.952Z,100092.42
2023-04-15T09:52:06.018Z,100090.34
2023-04-15T09:54:37.870Z,100090.64
2023-04-15T09:57:10.724Z,100088.25
2023-04-15T09:59:39.973Z,100089.90
2023-04-15T10:02:09.264Z,100090.89
2023-04-15T10:04:40.718Z,100096.39
2023-04-15T10:07:11.705Z,100098.33
2023-04-15T10:09:40.985Z,100098.98
2023-04-15T10:12:10.378Z,100102.35
2023-04-15T10:14:41.533Z,100103.02
2023-04-15T10:17:15.360Z,100105.95
2023-04-15T10:19:44.955Z,100110.91
2023-04-15T10:22:15.487Z,100112.00
2023-04-15T10:24:45.391Z,100114.11
2023-04-15T10:27:14.246Z,100109.14
2023-04-15T10:29:43.925Z,100114.05
2023-04-15T10:32:13.888Z,100118.08
2023-04-15T10:34:43.323Z,100118.14
2023-04-15T10:37:12.050Z,100116.36
2023-04-15T10:39:43.087Z,100123.84
2023-04-15T10:42:20.148Z,100122.39
2023-04-15T10:44:51.911Z,100124.11
2023-04-15T10:47:22.104Z,100123.46
2023-04-15T10:50:02.585Z,100122.56
2023-04-15T10:52:31.416Z,100121.50
2023-04-15T10:55:18.728Z,100123.01
2023-04-15T10:57:52.459Z,100124.42
2023-04-15T11:00:25.970Z,100125.08
2023-04-15T11:02:57.163Z,100127.92
2023-04-15T11:05:49.630Z,100132.20
2023-04-15T11:08:18.630Z,100129.70
2023-04-15T11:10:47.251Z,100133.63
2023-04-15T11:13:18.161Z,100133.79
2023-04-15T11:15:48.839Z,100136.78
2023-04-15T11:18:35.956Z,100142.16
2023-04-15T11:21:06.799Z,100143.72
2023-04-15T11:23:38.873Z,100149.59
2023-04-15T11:26:11.867Z,100149.63
2023-04-15T11:28:45.273Z,100156.95
2023-04-15T11:31:17.745Z,100162.91
2023-04-15T11:34:01.574Z,100170.02
2023-04-15T11:36:32.032Z,100169.02
2023-04-15T11:39:00.945Z,100177.11
2023-04-15T11:41:30.572Z,100175.81
2023-04-15T11:43:59.300Z,100173.64
2023-04-15T11:46:31.999Z,100173.34
2023-04-15T11:49:01.654Z,100174.54
2023-04-15T11:51:34.665Z,100173.30
2023-04-15T11:54:03.850Z,100172.66
2023-04-15T11:56:32.968Z,100180.17
2023-04-15T11:59:02.173Z,100185.54
2023-04-15T12:01:39.731Z,100184.77
2023-04-15T12:04:17.736Z,100189.89
2023-04-15T12:06:46.609Z,100191.80
2023-04-15T12:09:16.794Z,100193.59
2023-04-15T12:11:47.596Z,100196.14
2023-04-15T12:14:29.346Z,100198.92
2023-04-15T12:17:04.742Z,100201.44
2023-04-15T12:19:37.636Z,100202.27
2023-04-15T12:22:10.214Z,100205.58
2023-04-15T12:24:39.837Z,100205.98
2023-04-15T12:27:12.179Z,100208.29
2023-04-15T12:29:43.167Z,100211.39
2023-04-15T12:32:16.629Z,100214.33
2023-04-15T12:34:50.938Z,100214.42
2023-04-15T12:37:20.220Z,100219.23
2023-04-15T12:39:50.479Z,100217.98
2023-04-15T12:42:19.769Z,100221.40
2023-04-15T12:44:48.426Z,100221.01
2023-04-15T12:47:17.201Z,100223.74
2023-04-15T12:49:45.981Z,100228.38
2023-04-15T12:52:15.167Z,100230.15
2023-04-15T12:54:43.807Z,100230.09
2023-04-15T12:57:12.436Z,100234.16
2023-04-15T12:59:41.115Z,100237.30
2023-04-15T13:02:09.854Z,100239.79
2023-04-15T13:04:38.795Z,100236.31
2023-04-15T13:07:07.472Z,100239.30
2023-04-15T13:09:36.742Z,100242.88
2023-04-15T13:12:05.888Z,100243.88
2023-04-15T13:14:34.542Z,100247.40
2023-04-15T13:17:08.882Z,100246.67
2023-04-15T13:19:38.947Z,100244.02
2023-04-15T13:22:08.449Z,100247.08
2023-04-15T13:24:37.432Z,100248.98
2023-04-15T13:27:07.254Z,100248.23
2023-04-15T13:29:35.935Z,100250.77
2023-04-15T13:32:04.915Z,100250.48
2023-04-15T13:34:33.668Z,100254.73
2023-04-15T13:37:07.639Z,100255.64
2023-04-15T13:39:36.548Z,100257.38
2023-04-15T13:42:05.720Z,100255.39
2023-04-15T13:44:35.114Z,100252.27
2023-04-15T13:47:03.798Z,100257.05
2023-04-15T13:49:32.607Z,100262.63
2023-04-15T13:52:01.364Z,100264.63
2023-04-15T13:54:37.684Z,100270.35
2023-04-15T13:57:07.207Z,100269.60
2023-04-15T13:59:35.918Z,100271.83
2023-04-15T14:02:04.747Z,100270.18
2023-04-15T14:04:33.888Z,100268.34
2023-04-15T14:07:05.341Z,100269.16
2023-04-15T14:09:35.539Z,100267.95
2023-04-15T14:12:04.857Z,100266.80
2023-04-15T14:14:33.632Z,100270.89
2023-04-15T14:17:04.513Z,100270.73
2023-04-15T14:19:33.822Z,100267.73
2023-04-15T14:22:03.410Z,100267.55
2023-04-15T14:24:32.326Z,100265.95
2023-04-15T14:27:02.267Z,100265.88
2023-04-15T14:29:31.217Z,100270.81
2023-04-15T14:32:11.317Z,100269.78
2023-04-15T14:34:41.807Z,100272.06
2023-04-15T14:37:10.738Z,100273.30
2023-04-15T14:39:39.854Z,100279.61
2023-04-15T14:42:08.592Z,100277.10
2023-04-15T14:44:37.702Z,100269.39
2023-04-15T14:47:06.433Z,100270.73
2023-04-15T14:49:35.378Z,100270.12
2023-04-15T14:52:04.334Z,100272.39
2023-04-15T14:54:33.040Z,100277.60
2023-04-15T14:57:02.200Z,100281.83
2023-04-15T14:59:30.973Z,100284.59
2023-04-15T15:01:59.775Z,100286.86
2023-04-15T15:04:29.343Z,100291.84
2023-04-15T15:06:58.261Z,100292.38
2023-04-15T15:09:27.282Z,100293.96
2023-04-15T15:11:57.398Z,100296.25
2023-04-15T15:14:26.688Z,100297.90
2023-04-15T15:16:55.432Z,100301.20
2023-04-15T15:19:25.003Z,100306.51
2023-04-15T15:21:53.679Z,100305.94
2023-04-15T15:24:22.337Z,100300.04
2023-04-15T15:26:51.496Z,100306.59
2023-04-15T15:29:20.184Z,100306.07
2023-04-15T15:31:49.472Z,100310.38
2023-04-15T15:34:18.186Z,100317.61
2023-04-15T15:36:46.860Z,100319.16
2023-04-15T15:39:15.985Z,100328.23
2023-04-15T15:41:44.635Z,100328.50
2023-04-15T15:44:13.295Z,100328.18
2023-04-15T15:46:41.984Z,100328.83
2023-04-15T15:49:11.501Z,100331.23
2023-04-15T15:51:40.253Z,100335.27
2023-04-15T15:54:08.954Z,100336.65
2023-04-15T15:56:39.519Z,100336.86
2023-04-15T15:59:08.247Z,100339.08
2023-04-15T16:01:36.970Z,100343.12
2023-04-15T16:04:05.936Z,100342.98
2023-04-15T16:06:35.293Z,100345.27
2023-04-15T16:09:04.529Z,100349.96
2023-04-15T16:11:33.357Z,100353.15
2023-04-15T16:14:02.319Z,100352.86
2023-04-15T16:16:31.033Z,100348.48
2023-04-15T16:18:59.844Z,100358.16
2023-04-15T16:21:28.674Z,100364.06
2023-04-15T16:23:57.658Z,100364.96
2023-04-15T16:26:26.314Z,100362.55
2023-04-15T16:28:54.977Z,100368.23
2023-04-15T16:31:23.736Z,100369.73
2023-04-15T16:33:52.516Z,100370.69
2023-04-15T16:36:21.204Z,100371.54
2023-04-15T16:38:49.956Z,100373.84
2023-04-15T16:41:19.056Z,100374.02
2023-04-15T16:43:47.743Z,100373.10
2023-04-15T16:46:16.536Z,100376.16
2023-04-15T16:48:45.275Z,100379.46
2023-04-15T16:51:13.939Z,100382.98
2023-04-15T16:53:42.613Z,100390.48
2023-04-15T16:56:11.374Z,100392.20
2023-04-15T16:58:40.141Z,100389.70
2023-04-15T17:01:09.111Z,100389.12
2023-04-15T17:03:38.933Z,100387.26
2023-04-15T17:06:07.878Z,100390.05
2023-04-15T17:08:36.590Z,100392.08
2023-04-15T17:11:05.314Z,100392.45
2023-04-15T17:13:34.087Z,100392.84
2023-04-15T17:16:02.774Z,100388.77
2023-04-15T17:18:31.521Z,100395.52
2023-04-15T17:21:00.281Z,100394.54
2023-04-15T17:23:29.014Z,100400.40
2023-04-15T17:25:57.697Z,100401.50
2023-04-15T17:28:26.373Z,100399.21
2023-04-15T17:30:55.341Z,100406.13
2023-04-15T17:33:55.708Z,100411.05
2023-04-15T17:36:12.847Z,100413.39
2023-04-15T17:38:41.828Z,100419.48
2023-04-15T17:41:10.658Z,100426.30
2023-04-15T17:43:39.385Z,100423.27
2023-04-15T17:46:08.203Z,100422.02
2023-04-15T17:48:36.889Z,100415.90
2023-04-15T17:51:05.635Z,100412.21
2023-04-15T17:53:34.290Z,100415.55
2023-04-15T17:56:03.046Z,100417.73
2023-04-15T17:58:31.705Z,100413.79
2023-04-15T18:01:00.356Z,100420.30
2023-04-15T18:03:29.185Z,100426.79
2023-04-15T18:05:58.269Z,100433.22
2023-04-15T18:08:27.721Z,100434.52
2023-04-15T18:10:56.488Z,100438.60
2023-04-15T18:13:25.210Z,100442.98
2023-04-15T18:15:55.526Z,100451.39
2023-04-15T18:18:24.204Z,100458.43
2023-04-15T18:20:52.871Z,100460.63
2023-04-15T18:23:21.666Z,100462.11
2023-04-15T18:25:50.395Z,100462.90
2023-04-15T18:28:19.094Z,100464.37
2023-04-15T18:30:47.766Z,100468.25
2023-04-15T18:33:16.411Z,100482.46
2023-04-15T18:35:45.244Z,100485.41
2023-04-15T18:38:13.960Z,100487.02
2023-04-15T18:40:42.630Z,100490.63
2023-04-15T18:43:11.346Z,100492.70
2023-04-15T18:45:40.137Z,100491.63
2023-04-15T18:48:08.852Z,100492.98
2023-04-15T18:50:37.616Z,100494.44
2023-04-15T18:53:06.291Z,100497.86
2023-04-15T18:55:35.638Z,100502.14
2023-04-15T18:58:09.213Z,100505.41
2023-04-15T19:00:41.727Z,100510.42
2023-04-15T19:03:11.562Z,100511.71
2023-04-15T19:05:41.234Z,100517.38
2023-04-15T19:08:10.772Z,100522.14
2023-04-15T19:10:39.530Z,100529.25
2023-04-15T19:13:08.250Z,100532.57
2023-04-15T19:15:36.928Z,100536.48
2023-04-15T19:18:10.442Z,100536.98
2023-04-15T19:20:40.009Z,100539.95
2023-04-15T19:23:11.232Z,100543.77
2023-04-15T19:25:39.942Z,100548.69
2023-04-15T19:28:08.602Z,100549.35
2023-04-15T19:30:37.317Z,100552.08
2023-04-15T19:33:06.123Z,100551.58
2023-04-15T19:35:34.806Z,100552.28
2023-04-15T19:38:03.585Z,100554.52
2023-04-15T19:40:32.231Z,100552.59
2023-04-15T19:43:01.069Z,100553.46
2023-04-15T19:45:31.294Z,100549.33
2023-04-15T19:48:00.459Z,100552.85
2023-04-15T19:50:29.151Z,100555.70
2023-04-15T19:52:57.793Z,100555.70
2023-04-15T19:55:26.461Z,100558.46
2023-04-15T19:57:55.428Z,100557.15
2023-04-15T20:00:24.128Z,100550.70
2023-04-15T20:02:53.287Z,100556.61
2023-04-15T20:05:22.204Z,100556.41
2023-04-15T20:07:52.970Z,100556.11
2023-04-15T20:10:22.503Z,100556.23
2023-04-15T20:12:53.054Z,100555.29
2023-04-15T20:15:23.884Z,100553.27
2023-04-15T20:17:52.970Z,100553.67
2023-04-15T20:20:22.336Z,100558.23
2023-04-15T20:22:52.762Z,100560.13
2023-04-15T20:25:21.432Z,100558.33
2023-04-15T20:27:50.548Z,100560.51
2023-04-15T20:30:19.196Z,100561.71
2023-04-15T20:32:48.048Z,100565.88
2023-04-15T20:35:16.771Z,100565.94
2023-04-15T20:37:45.595Z,100569.49
2023-04-15T20:40:14.796Z,100570.02
2023-04-15T20:42:43.707Z,100571.35
2023-04-15T20:45:12.382Z,100574.16
2023-04-15T20:47:41.572Z,100578.76
2023-04-15T20:50:11.300Z,100580.76
2023-04-15T20:52:40.069Z,100590.96
2023-04-15T20:55:09.018Z,100591.40
2023-04-15T20:57:37.662Z,100591.91
2023-04-15T21:00:09.354Z,100595.68
2023-04-15T21:02:38.448Z,100594.96
2023-04-15T21:05:08.013Z,100603.61
2023-04-15T21:07:36.743Z,100609.48
2023-04-15T21:10:05.842Z,100612.93
2023-04-15T21:12:34.600Z,100615.35
2023-04-15T21:15:03.917Z,100624.16
2023-04-15T21:17:35.231Z,100631.31
2023-04-15T21:20:04.202Z,100635.52
2023-04-15T21:22:33.161Z,100639.77
2023-04-15T21:25:01.785Z,100639.14
2023-04-15T21:27:30.560Z,100642.47
2023-04-15T21:29:59.207Z,100646.81
2023-04-15T21:32:27.977Z,100648.38
2023-04-15T21:34:56.786Z,100651.38
2023-04-15T21:37:25.759Z,100656.59
2023-04-15T21:39:54.486Z,100657.55
2023-04-15T21:42:23.351Z,100659.52
2023-04-15T21:44:52.000Z,100660.54
2023-04-15T21:47:20.745Z,100659.64
2023-04-15T21:49:50.753Z,100659.42
2023-04-15T21:52:19.381Z,100658.08
2023-04-15T21:54:48.006Z,100653.80
2023-04-15T21:57:17.092Z,100654.95
2023-04-15T21:59:45.769Z,100656.86
2023-04-15T22:02:14.429Z,100661.59
2023-04-15T22:04:43.249Z,100660.00
2023-04-15T22:07:11.895Z,100668.05
2023-04-15T22:09:40.631Z,100664.20
2023-04-15T22:12:09.300Z,100666.86
2023-04-15T22:14:38.158Z,100667.58
2023-04-15T22:17:06.876Z,100672.08
2023-04-15T22:19:35.646Z,100672.64
2023-04-15T22:22:04.301Z,100672.00
2023-04-15T22:24:39.960Z,100676.88
2023-04-15T22:27:09.609Z,100679.90
2023-04-15T22:29:38.284Z,100681.02
2023-04-15T22:32:07.471Z,100683.85
2023-04-15T22:34:36.308Z,100682.66
2023-04-15T22:37:05.048Z,100681.57
2023-04-15T22:39:33.710Z,100686.84
2023-04-15T22:42:02.397Z,100690.69
2023-04-15T22:44:31.218Z,100697.55
2023-04-15T22:46:59.994Z,100700.02
2023-04-15T22:49:28.765Z,100709.42
2023-04-15T22:51:57.455Z,100709.30
2023-04-15T22:54:26.192Z,100714.16
2023-04-15T22:56:54.830Z,100715.58
2023-04-15T22:59:23.698Z,100717.22
2023-04-15T23:01:53.394Z,100719.05
2023-04-15T23:04:25.172Z,100722.01
2023-04-15T23:06:56.877Z,100725.67
2023-04-15T23:09:25.582Z,100727.65
2023-04-15T23:11:56.230Z,100724.32
2023-04-15T23:14:26.204Z,100725.80
2023-04-15T23:16:56.727Z,100728.44
2023-04-15T23:19:25.475Z,100723.33
2023-04-15T23:21:54.169Z,100721.11
2023-04-15T23:24:22.936Z,100717.13
2023-04-15T23:26:53.067Z,100718.84
2023-04-15T23:29:21.722Z,100720.16
2023-04-15T23:31:50.699Z,100719.36
2023-04-15T23:34:19.449Z,100719.58
2023-04-15T23:36:48.492Z,100716.30
2023-04-15T23:39:17.184Z,100720.92
2023-04-15T23:41:45.898Z,100717.48
2023-04-15T23:44:14.549Z,100718.34
2023-04-15T23:46:43.250Z,100719.27
2023-04-15T23:49:12.081Z,100719.77
2023-04-15T23:51:41.132Z,100721.70
2023-04-15T23:54:09.760Z,100721.27
2023-04-15T23:56:38.418Z,100723.23
2023-04-15T23:59:07.177Z,100723.09
